sensor_id;sensor_type;location;lat;lon;timestamp;pressure;altitude;pressure_sealevel;temperature;humidity
10988;BME280;5547;42.672;23.230;2022-09-19T00:00:25;93473.16;;;3.46;90.77
10988;BME280;5547;42.672;23.230;2022-09-19T00:02:50;93465.34;;;3.53;92.71
10988;BME280;5547;42.672;23.230;2022-09-19T00:05:16;93465.56;;;3.41;92.57
10988;BME280;5547;42.672;23.230;2022-09-19T00:07:41;93468.19;;;3.41;92.79
10988;BME280;5547;42.672;23.230;2022-09-19T00:10:08;93458.78;;;3.40;92.44
10988;BME280;5547;42.672;23.230;2022-09-19T00:12:33;93468.97;;;3.41;93.01
10988;BME280;5547;42.672;23.230;2022-09-19T00:14:59;93451.56;;;3.33;92.95
10988;BME280;5547;42.672;23.230;2022-09-19T00:17:24;93454.16;;;3.29;93.47
10988;BME280;5547;42.672;23.230;2022-09-19T00:19:50;93453.03;;;3.30;93.26
10988;BME280;5547;42.672;23.230;2022-09-19T00:22:16;93447.63;;;3.20;92.84
10988;BME280;5547;42.672;23.230;2022-09-19T00:24:41;93450.91;;;3.13;92.65
10988;BME280;5547;42.672;23.230;2022-09-19T00:27:19;93453.97;;;3.19;93.86
10988;BME280;5547;42.672;23.230;2022-09-19T00:29:44;93447.97;;;3.18;94.26
10988;BME280;5547;42.672;23.230;2022-09-19T00:32:10;93444.72;;;3.02;93.49
10988;BME280;5547;42.672;23.230;2022-09-19T00:34:44;93443.88;;;2.94;95.43
10988;BME280;5547;42.672;23.230;2022-09-19T00:37:13;93457.44;;;3.00;95.18
10988;BME280;5547;42.672;23.230;2022-09-19T00:39:38;93456.63;;;2.95;95.12
10988;BME280;5547;42.672;23.230;2022-09-19T00:42:04;93453.63;;;2.93;95.13
10988;BME280;5547;42.672;23.230;2022-09-19T00:49:20;93461.78;;;2.65;95.21
10988;BME280;5547;42.672;23.230;2022-09-19T00:51:48;93453.63;;;2.70;95.05
10988;BME280;5547;42.672;23.230;2022-09-19T00:54:21;93454.78;;;2.73;95.79
10988;BME280;5547;42.672;23.230;2022-09-19T00:56:47;93450.19;;;2.66;94.84
10988;BME280;5547;42.672;23.230;2022-09-19T00:59:14;93456.72;;;2.76;96.12
10988;BME280;5547;42.672;23.230;2022-09-19T01:01:40;93459.16;;;2.65;94.26
10988;BME280;5547;42.672;23.230;2022-09-19T01:04:15;93440.59;;;2.55;94.75
10988;BME280;5547;42.672;23.230;2022-09-19T01:09:24;93439.59;;;2.63;95.43
10988;BME280;5547;42.672;23.230;2022-09-19T01:30:20;93435.25;;;2.70;96.77
10988;BME280;5547;42.672;23.230;2022-09-19T01:33:18;93437.38;;;2.65;96.83
10988;BME280;5547;42.672;23.230;2022-09-19T01:35:37;93429.06;;;2.59;96.50
10988;BME280;5547;42.672;23.230;2022-09-19T01:38:09;93437.69;;;2.60;97.00
10988;BME280;5547;42.672;23.230;2022-09-19T01:40:36;93429.69;;;2.52;96.97
10988;BME280;5547;42.672;23.230;2022-09-19T01:43:02;93423.00;;;2.36;96.47
10988;BME280;5547;42.672;23.230;2022-09-19T01:45:29;93432.09;;;2.38;97.24
10988;BME280;5547;42.672;23.230;2022-09-19T01:48:00;93427.16;;;2.37;97.69
10988;BME280;5547;42.672;23.230;2022-09-19T01:50:39;93423.19;;;2.23;98.05
10988;BME280;5547;42.672;23.230;2022-09-19T01:58:47;93426.88;;;2.42;97.72
10988;BME280;5547;42.672;23.230;2022-09-19T02:11:09;93424.84;;;2.31;97.54
10988;BME280;5547;42.672;23.230;2022-09-19T02:13:37;93421.72;;;2.26;98.02
10988;BME280;5547;42.672;23.230;2022-09-19T02:16:09;93411.63;;;2.28;99.17
10988;BME280;5547;42.672;23.230;2022-09-19T02:18:39;93420.69;;;2.30;99.22
10988;BME280;5547;42.672;23.230;2022-09-19T02:21:09;93422.56;;;2.30;99.26
10988;BME280;5547;42.672;23.230;2022-09-19T02:23:41;93417.06;;;2.16;98.73
10988;BME280;5547;42.672;23.230;2022-09-19T02:26:12;93414.72;;;2.10;98.42
10988;BME280;5547;42.672;23.230;2022-09-19T02:28:39;93418.09;;;2.11;98.41
10988;BME280;5547;42.672;23.230;2022-09-19T02:31:07;93420.78;;;2.15;98.78
10988;BME280;5547;42.672;23.230;2022-09-19T02:33:33;93410.94;;;2.08;98.76
10988;BME280;5547;42.672;23.230;2022-09-19T02:36:08;93415.47;;;2.11;98.78
10988;BME280;5547;42.672;23.230;2022-09-19T02:38:54;93409.19;;;1.96;98.53
10988;BME280;5547;42.672;23.230;2022-09-19T02:41:39;93401.69;;;1.95;99.04
10988;BME280;5547;42.672;23.230;2022-09-19T02:49:01;93404.50;;;2.05;98.87
10988;BME280;5547;42.672;23.230;2022-09-19T02:51:48;93407.91;;;2.06;98.69
10988;BME280;5547;42.672;23.230;2022-09-19T02:54:26;93407.13;;;2.05;98.62
10988;BME280;5547;42.672;23.230;2022-09-19T02:56:55;93405.59;;;2.04;98.42
10988;BME280;5547;42.672;23.230;2022-09-19T02:59:23;93397.66;;;2.01;98.10
10988;BME280;5547;42.672;23.230;2022-09-19T03:01:52;93407.13;;;2.05;98.70
10988;BME280;5547;42.672;23.230;2022-09-19T03:04:21;93401.91;;;1.86;98.47
10988;BME280;5547;42.672;23.230;2022-09-19T03:09:21;93400.38;;;1.85;98.00
10988;BME280;5547;42.672;23.230;2022-09-19T03:11:58;93401.75;;;1.79;98.52
10988;BME280;5547;42.672;23.230;2022-09-19T03:14:25;93402.44;;;1.95;98.26
10988;BME280;5547;42.672;23.230;2022-09-19T03:16:51;93409.88;;;2.13;98.58
10988;BME280;5547;42.672;23.230;2022-09-19T03:19:20;93401.81;;;2.02;97.09
10988;BME280;5547;42.672;23.230;2022-09-19T03:21:50;93404.44;;;2.02;97.89
10988;BME280;5547;42.672;23.230;2022-09-19T03:24:16;93411.28;;;1.87;97.79
10988;BME280;5547;42.672;23.230;2022-09-19T03:26:41;93408.03;;;1.94;98.93
10988;BME280;5547;42.672;23.230;2022-09-19T03:29:07;93409.75;;;1.86;98.90
10988;BME280;5547;42.672;23.230;2022-09-19T03:31:33;93411.09;;;1.76;98.71
10988;BME280;5547;42.672;23.230;2022-09-19T03:33:58;93414.88;;;1.79;98.97
10988;BME280;5547;42.672;23.230;2022-09-19T03:36:24;93414.31;;;1.70;98.96
10988;BME280;5547;42.672;23.230;2022-09-19T03:38:50;93409.50;;;1.72;99.34
10988;BME280;5547;42.672;23.230;2022-09-19T03:41:19;93406.47;;;1.70;99.36
10988;BME280;5547;42.672;23.230;2022-09-19T03:43:45;93399.19;;;1.82;99.85
10988;BME280;5547;42.672;23.230;2022-09-19T03:46:14;93386.25;;;1.89;99.52
10988;BME280;5547;42.672;23.230;2022-09-19T03:48:40;93385.41;;;1.85;99.47
10988;BME280;5547;42.672;23.230;2022-09-19T03:51:06;93380.16;;;1.85;99.54
10988;BME280;5547;42.672;23.230;2022-09-19T03:53:32;93378.09;;;1.75;98.98
10988;BME280;5547;42.672;23.230;2022-09-19T03:55:58;93377.19;;;1.67;98.70
10988;BME280;5547;42.672;23.230;2022-09-19T03:58:23;93382.25;;;1.76;98.78
10988;BME280;5547;42.672;23.230;2022-09-19T04:00:49;93381.50;;;1.76;98.43
10988;BME280;5547;42.672;23.230;2022-09-19T04:03:14;93381.88;;;1.78;99.16
10988;BME280;5547;42.672;23.230;2022-09-19T04:05:40;93375.41;;;1.72;98.69
10988;BME280;5547;42.672;23.230;2022-09-19T04:08:07;93375.00;;;1.70;98.99
10988;BME280;5547;42.672;23.230;2022-09-19T04:10:33;93375.53;;;1.59;99.08
10988;BME280;5547;42.672;23.230;2022-09-19T04:12:58;93375.75;;;1.51;98.89
10988;BME280;5547;42.672;23.230;2022-09-19T04:15:23;93372.78;;;1.52;99.18
10988;BME280;5547;42.672;23.230;2022-09-19T04:17:49;93377.41;;;1.59;99.20
10988;BME280;5547;42.672;23.230;2022-09-19T04:20:14;93380.16;;;1.66;99.26
10988;BME280;5547;42.672;23.230;2022-09-19T04:22:39;93380.44;;;1.61;99.42
10988;BME280;5547;42.672;23.230;2022-09-19T04:25:05;93383.47;;;1.63;99.21
10988;BME280;5547;42.672;23.230;2022-09-19T04:27:32;93373.53;;;1.72;99.51
10988;BME280;5547;42.672;23.230;2022-09-19T04:29:57;93372.91;;;1.79;99.23
10988;BME280;5547;42.672;23.230;2022-09-19T04:32:23;93366.97;;;1.82;99.67
10988;BME280;5547;42.672;23.230;2022-09-19T04:34:49;93379.03;;;1.86;99.71
10988;BME280;5547;42.672;23.230;2022-09-19T04:37:15;93374.59;;;2.10;100.00
10988;BME280;5547;42.672;23.230;2022-09-19T04:39:40;93374.72;;;2.40;100.00
10988;BME280;5547;42.672;23.230;2022-09-19T04:42:06;93378.91;;;2.45;100.00
10988;BME280;5547;42.672;23.230;2022-09-19T04:44:31;93378.25;;;2.48;100.00
10988;BME280;5547;42.672;23.230;2022-09-19T04:46:56;93372.09;;;2.63;100.00
10988;BME280;5547;42.672;23.230;2022-09-19T04:49:22;93378.97;;;2.71;100.00
10988;BME280;5547;42.672;23.230;2022-09-19T04:51:47;93376.94;;;2.84;100.00
10988;BME280;5547;42.672;23.230;2022-09-19T04:54:13;93370.44;;;3.05;100.00
10988;BME280;5547;42.672;23.230;2022-09-19T04:56:39;93366.91;;;3.20;99.46
10988;BME280;5547;42.672;23.230;2022-09-19T04:59:06;93370.75;;;3.26;98.59
10988;BME280;5547;42.672;23.230;2022-09-19T05:01:31;93370.88;;;3.37;98.64
10988;BME280;5547;42.672;23.230;2022-09-19T05:03:57;93369.19;;;3.52;98.57
10988;BME280;5547;42.672;23.230;2022-09-19T05:06:22;93366.78;;;3.73;97.76
10988;BME280;5547;42.672;23.230;2022-09-19T05:08:47;93375.69;;;3.95;98.57
10988;BME280;5547;42.672;23.230;2022-09-19T05:11:13;93369.56;;;4.21;97.16
10988;BME280;5547;42.672;23.230;2022-09-19T05:13:39;93372.03;;;4.48;93.19
10988;BME280;5547;42.672;23.230;2022-09-19T05:16:04;93378.56;;;4.61;92.37
10988;BME280;5547;42.672;23.230;2022-09-19T05:18:30;93373.72;;;4.71;92.99
10988;BME280;5547;42.672;23.230;2022-09-19T05:21:06;93376.47;;;4.85;93.66
10988;BME280;5547;42.672;23.230;2022-09-19T05:23:32;93383.72;;;4.99;93.69
10988;BME280;5547;42.672;23.230;2022-09-19T05:26:01;93389.84;;;5.14;92.94
10988;BME280;5547;42.672;23.230;2022-09-19T05:28:27;93389.19;;;5.31;91.07
10988;BME280;5547;42.672;23.230;2022-09-19T05:30:53;93394.59;;;5.53;88.09
10988;BME280;5547;42.672;23.230;2022-09-19T05:33:24;93399.94;;;5.67;86.87
10988;BME280;5547;42.672;23.230;2022-09-19T05:35:53;93397.72;;;5.76;87.16
10988;BME280;5547;42.672;23.230;2022-09-19T05:38:20;93399.25;;;5.81;84.99
10988;BME280;5547;42.672;23.230;2022-09-19T05:40:46;93401.53;;;5.86;84.85
10988;BME280;5547;42.672;23.230;2022-09-19T05:43:11;93394.81;;;5.99;83.48
10988;BME280;5547;42.672;23.230;2022-09-19T05:45:36;93403.91;;;6.05;83.13
10988;BME280;5547;42.672;23.230;2022-09-19T05:48:03;93394.13;;;6.13;82.07
10988;BME280;5547;42.672;23.230;2022-09-19T05:50:29;93394.91;;;6.24;81.58
10988;BME280;5547;42.672;23.230;2022-09-19T05:52:55;93394.91;;;6.35;81.39
10988;BME280;5547;42.672;23.230;2022-09-19T05:55:39;93392.69;;;6.48;81.34
10988;BME280;5547;42.672;23.230;2022-09-19T05:58:04;93396.81;;;6.49;79.82
10988;BME280;5547;42.672;23.230;2022-09-19T06:00:33;93392.31;;;6.67;79.20
10988;BME280;5547;42.672;23.230;2022-09-19T06:03:00;93399.88;;;6.69;80.15
10988;BME280;5547;42.672;23.230;2022-09-19T06:05:26;93391.19;;;6.83;80.13
10988;BME280;5547;42.672;23.230;2022-09-19T06:07:52;93388.91;;;7.06;77.47
10988;BME280;5547;42.672;23.230;2022-09-19T06:10:21;93392.31;;;7.14;77.35
10988;BME280;5547;42.672;23.230;2022-09-19T06:12:47;93390.03;;;7.20;76.42
10988;BME280;5547;42.672;23.230;2022-09-19T06:15:12;93393.44;;;7.31;76.87
10988;BME280;5547;42.672;23.230;2022-09-19T06:17:37;93395.66;;;7.43;76.36
10988;BME280;5547;42.672;23.230;2022-09-19T06:20:03;93402.09;;;7.49;75.75
10988;BME280;5547;42.672;23.230;2022-09-19T06:22:28;93407.75;;;7.48;77.78
10988;BME280;5547;42.672;23.230;2022-09-19T06:24:54;93403.16;;;7.66;77.75
10988;BME280;5547;42.672;23.230;2022-09-19T06:27:20;93396.38;;;7.62;77.17
10988;BME280;5547;42.672;23.230;2022-09-19T06:29:45;93405.44;;;7.64;77.25
10988;BME280;5547;42.672;23.230;2022-09-19T06:32:11;93403.13;;;7.81;78.05
10988;BME280;5547;42.672;23.230;2022-09-19T06:34:37;93401.19;;;7.95;77.21
10988;BME280;5547;42.672;23.230;2022-09-19T06:37:02;93404.59;;;7.99;75.30
10988;BME280;5547;42.672;23.230;2022-09-19T06:39:28;93405.63;;;8.16;74.37
10988;BME280;5547;42.672;23.230;2022-09-19T06:41:54;93397.59;;;8.34;75.41
10988;BME280;5547;42.672;23.230;2022-09-19T06:44:19;93399.09;;;8.43;73.72
10988;BME280;5547;42.672;23.230;2022-09-19T06:46:45;93395.03;;;8.13;73.73
10988;BME280;5547;42.672;23.230;2022-09-19T06:49:10;93401.44;;;8.23;74.46
10988;BME280;5547;42.672;23.230;2022-09-19T06:51:36;93398.72;;;8.40;72.53
10988;BME280;5547;42.672;23.230;2022-09-19T06:54:01;93399.09;;;8.43;75.68
10988;BME280;5547;42.672;23.230;2022-09-19T06:56:27;93392.22;;;8.52;74.39
10988;BME280;5547;42.672;23.230;2022-09-19T06:58:52;93395.06;;;8.79;73.41
10988;BME280;5547;42.672;23.230;2022-09-19T07:01:17;93388.59;;;8.84;70.72
10988;BME280;5547;42.672;23.230;2022-09-19T07:03:43;93388.22;;;8.82;70.21
10988;BME280;5547;42.672;23.230;2022-09-19T07:06:08;93392.78;;;8.78;72.20
10988;BME280;5547;42.672;23.230;2022-09-19T07:08:34;93388.16;;;8.93;73.28
10988;BME280;5547;42.672;23.230;2022-09-19T07:10:59;93384.66;;;9.03;72.12
10988;BME280;5547;42.672;23.230;2022-09-19T07:13:24;93383.75;;;9.20;73.49
10988;BME280;5547;42.672;23.230;2022-09-19T07:15:50;93385.44;;;9.41;73.21
10988;BME280;5547;42.672;23.230;2022-09-19T07:18:15;93385.75;;;9.47;69.95
10988;BME280;5547;42.672;23.230;2022-09-19T07:20:41;93383.38;;;9.60;68.91
10988;BME280;5547;42.672;23.230;2022-09-19T07:25:32;93387.09;;;9.66;70.98
10988;BME280;5547;42.672;23.230;2022-09-19T07:27:59;93381.75;;;9.70;68.53
10988;BME280;5547;42.672;23.230;2022-09-19T07:30:24;93383.47;;;9.87;70.38
10988;BME280;5547;42.672;23.230;2022-09-19T07:32:53;93378.16;;;9.83;67.77
10988;BME280;5547;42.672;23.230;2022-09-19T07:35:18;93387.13;;;9.62;69.11
10988;BME280;5547;42.672;23.230;2022-09-19T07:37:50;93385.41;;;9.83;66.82
10988;BME280;5547;42.672;23.230;2022-09-19T07:40:15;93380.28;;;9.99;69.13
10988;BME280;5547;42.672;23.230;2022-09-19T07:42:40;93383.75;;;10.23;69.30
10988;BME280;5547;42.672;23.230;2022-09-19T07:45:05;93375.69;;;10.34;68.74
10988;BME280;5547;42.672;23.230;2022-09-19T07:47:31;93377.28;;;10.55;66.44
10988;BME280;5547;42.672;23.230;2022-09-19T07:49:58;93373.28;;;10.43;65.17
10988;BME280;5547;42.672;23.230;2022-09-19T07:52:23;93380.88;;;10.45;64.40
10988;BME280;5547;42.672;23.230;2022-09-19T07:54:49;93374.34;;;10.49;65.04
10988;BME280;5547;42.672;23.230;2022-09-19T07:57:15;93368.31;;;10.45;63.81
10988;BME280;5547;42.672;23.230;2022-09-19T07:59:40;93368.72;;;10.71;63.63
10988;BME280;5547;42.672;23.230;2022-09-19T08:02:06;93367.28;;;10.63;64.69
10988;BME280;5547;42.672;23.230;2022-09-19T08:04:33;93364.97;;;10.65;63.94
10988;BME280;5547;42.672;23.230;2022-09-19T08:06:58;93372.56;;;10.66;62.82
10988;BME280;5547;42.672;23.230;2022-09-19T08:09:24;93368.31;;;10.72;63.40
10988;BME280;5547;42.672;23.230;2022-09-19T08:11:49;93356.13;;;10.75;65.82
10988;BME280;5547;42.672;23.230;2022-09-19T08:14:14;93353.56;;;11.15;62.73
10988;BME280;5547;42.672;23.230;2022-09-19T08:16:39;93361.28;;;11.09;60.57
10988;BME280;5547;42.672;23.230;2022-09-19T08:19:05;93352.13;;;10.87;60.86
10988;BME280;5547;42.672;23.230;2022-09-19T08:21:31;93347.91;;;10.89;62.40
10988;BME280;5547;42.672;23.230;2022-09-19T08:23:56;93347.31;;;11.25;60.07
10988;BME280;5547;42.672;23.230;2022-09-19T08:26:22;93354.22;;;11.43;61.23
10988;BME280;5547;42.672;23.230;2022-09-19T08:28:50;93348.72;;;11.53;59.78
10988;BME280;5547;42.672;23.230;2022-09-19T08:31:16;93354.59;;;11.65;59.61
10988;BME280;5547;42.672;23.230;2022-09-19T08:33:42;93352.94;;;11.71;60.50
10988;BME280;5547;42.672;23.230;2022-09-19T08:36:07;93354.72;;;11.77;59.16
10988;BME280;5547;42.672;23.230;2022-09-19T08:38:35;93352.47;;;11.76;57.38
10988;BME280;5547;42.672;23.230;2022-09-19T08:43:37;93351.84;;;12.08;57.78
10988;BME280;5547;42.672;23.230;2022-09-19T08:51:22;93339.69;;;12.27;56.93
10988;BME280;5547;42.672;23.230;2022-09-19T08:53:52;93340.59;;;12.37;58.86
10988;BME280;5547;42.672;23.230;2022-09-19T08:56:18;93353.09;;;12.40;55.76
10988;BME280;5547;42.672;23.230;2022-09-19T08:58:46;93352.78;;;12.38;55.83
10988;BME280;5547;42.672;23.230;2022-09-19T09:01:12;93342.47;;;12.56;57.66
10988;BME280;5547;42.672;23.230;2022-09-19T09:04:26;93344.91;;;12.67;56.08
10988;BME280;5547;42.672;23.230;2022-09-19T09:14:02;93340.22;;;12.38;56.64
10988;BME280;5547;42.672;23.230;2022-09-19T09:24:00;93327.53;;;12.75;54.44
10988;BME280;5547;42.672;23.230;2022-09-19T09:26:29;93315.38;;;12.74;54.24
10988;BME280;5547;42.672;23.230;2022-09-19T09:29:03;93316.13;;;12.75;55.01
10988;BME280;5547;42.672;23.230;2022-09-19T09:31:38;93299.44;;;12.87;55.18
10988;BME280;5547;42.672;23.230;2022-09-19T09:36:44;93293.19;;;13.39;55.67
10988;BME280;5547;42.672;23.230;2022-09-19T09:41:41;93288.16;;;13.29;55.92
10988;BME280;5547;42.672;23.230;2022-09-19T09:45:00;93283.53;;;13.29;53.32
10988;BME280;5547;42.672;23.230;2022-09-19T09:49:40;93279.88;;;13.52;56.03
10988;BME280;5547;42.672;23.230;2022-09-19T09:57:33;93274.69;;;13.74;52.30
10988;BME280;5547;42.672;23.230;2022-09-19T10:05:34;93269.59;;;13.80;52.20
10988;BME280;5547;42.672;23.230;2022-09-19T10:10:44;93261.06;;;14.23;50.08
10988;BME280;5547;42.672;23.230;2022-09-19T10:13:22;93261.34;;;14.25;49.01
10988;BME280;5547;42.672;23.230;2022-09-19T10:15:50;93269.72;;;14.40;49.07
10988;BME280;5547;42.672;23.230;2022-09-19T10:18:19;93266.06;;;14.47;50.19
10988;BME280;5547;42.672;23.230;2022-09-19T10:20:47;93256.25;;;14.57;46.85
10988;BME280;5547;42.672;23.230;2022-09-19T10:23:15;93252.78;;;14.82;47.87
10988;BME280;5547;42.672;23.230;2022-09-19T10:25:43;93244.28;;;14.83;44.95
10988;BME280;5547;42.672;23.230;2022-09-19T10:28:42;93243.06;;;15.32;41.75
10988;BME280;5547;42.672;23.230;2022-09-19T10:31:01;93248.09;;;15.52;38.31
10988;BME280;5547;42.672;23.230;2022-09-19T10:36:06;93241.06;;;15.67;45.13
10988;BME280;5547;42.672;23.230;2022-09-19T10:38:37;93230.13;;;15.62;34.88
10988;BME280;5547;42.672;23.230;2022-09-19T10:41:10;93223.69;;;15.72;38.76
10988;BME280;5547;42.672;23.230;2022-09-19T10:43:39;93224.53;;;15.69;35.36
10988;BME280;5547;42.672;23.230;2022-09-19T10:46:14;93215.25;;;15.61;32.24
10988;BME280;5547;42.672;23.230;2022-09-19T10:48:40;93205.47;;;15.98;32.28
10988;BME280;5547;42.672;23.230;2022-09-19T10:51:07;93199.41;;;16.07;33.63
10988;BME280;5547;42.672;23.230;2022-09-19T10:53:34;93206.63;;;16.28;32.48
10988;BME280;5547;42.672;23.230;2022-09-19T10:56:04;93205.03;;;16.49;32.31
10988;BME280;5547;42.672;23.230;2022-09-19T10:58:32;93199.66;;;16.40;32.27
10988;BME280;5547;42.672;23.230;2022-09-19T11:01:03;93196.84;;;16.44;30.82
10988;BME280;5547;42.672;23.230;2022-09-19T11:03:30;93197.75;;;16.50;31.89
10988;BME280;5547;42.672;23.230;2022-09-19T11:06:09;93183.44;;;16.62;33.21
10988;BME280;5547;42.672;23.230;2022-09-19T11:11:27;93179.84;;;16.56;31.09
10988;BME280;5547;42.672;23.230;2022-09-19T11:14:13;93164.34;;;16.60;32.64
10988;BME280;5547;42.672;23.230;2022-09-19T11:19:39;93169.44;;;16.76;33.19
10988;BME280;5547;42.672;23.230;2022-09-19T11:37:49;93152.25;;;17.29;30.41
10988;BME280;5547;42.672;23.230;2022-09-19T11:42:45;93146.13;;;17.47;29.66
10988;BME280;5547;42.672;23.230;2022-09-19T11:45:17;93143.75;;;17.40;29.47
10988;BME280;5547;42.672;23.230;2022-09-19T12:00:48;93150.03;;;17.18;30.25
10988;BME280;5547;42.672;23.230;2022-09-19T12:06:14;93136.84;;;17.39;29.51
10988;BME280;5547;42.672;23.230;2022-09-19T12:11:16;93126.59;;;17.19;30.05
10988;BME280;5547;42.672;23.230;2022-09-19T12:13:58;93113.59;;;17.27;30.34
10988;BME280;5547;42.672;23.230;2022-09-19T12:16:38;93125.19;;;17.42;31.42
10988;BME280;5547;42.672;23.230;2022-09-19T12:19:10;93124.41;;;17.60;31.77
10988;BME280;5547;42.672;23.230;2022-09-19T12:21:39;93117.50;;;17.68;29.11
10988;BME280;5547;42.672;23.230;2022-09-19T12:24:11;93113.50;;;17.63;31.10
10988;BME280;5547;42.672;23.230;2022-09-19T12:29:43;93123.91;;;17.71;31.58
10988;BME280;5547;42.672;23.230;2022-09-19T12:35:04;93113.66;;;17.60;31.79
10988;BME280;5547;42.672;23.230;2022-09-19T12:42:47;93109.25;;;17.38;33.12
10988;BME280;5547;42.672;23.230;2022-09-19T12:45:23;93101.53;;;17.64;31.33
10988;BME280;5547;42.672;23.230;2022-09-19T12:47:54;93100.16;;;17.69;32.74
10988;BME280;5547;42.672;23.230;2022-09-19T12:50:26;93105.22;;;17.76;32.57
10988;BME280;5547;42.672;23.230;2022-09-19T12:53:17;93100.59;;;17.77;33.65
10988;BME280;5547;42.672;23.230;2022-09-19T12:56:03;93096.34;;;17.52;34.86
10988;BME280;5547;42.672;23.230;2022-09-19T12:58:46;93091.75;;;17.43;33.59
10988;BME280;5547;42.672;23.230;2022-09-19T13:06:46;93104.44;;;17.42;33.96
10988;BME280;5547;42.672;23.230;2022-09-19T13:09:17;93100.09;;;17.45;33.28
10988;BME280;5547;42.672;23.230;2022-09-19T13:11:56;93092.91;;;17.51;33.27
10988;BME280;5547;42.672;23.230;2022-09-19T13:14:27;93087.06;;;17.53;33.57
10988;BME280;5547;42.672;23.230;2022-09-19T13:16:58;93080.44;;;17.30;34.59
10988;BME280;5547;42.672;23.230;2022-09-19T13:19:43;93075.09;;;17.20;35.67
10988;BME280;5547;42.672;23.230;2022-09-19T13:22:27;93077.16;;;17.26;34.66
10988;BME280;5547;42.672;23.230;2022-09-19T13:25:12;93070.91;;;17.19;35.13
10988;BME280;5547;42.672;23.230;2022-09-19T13:27:38;93073.88;;;17.31;34.55
10988;BME280;5547;42.672;23.230;2022-09-19T13:30:21;93064.66;;;17.13;36.49
10988;BME280;5547;42.672;23.230;2022-09-19T13:32:54;93065.38;;;17.23;35.69
10988;BME280;5547;42.672;23.230;2022-09-19T13:35:20;93054.28;;;17.30;36.77
10988;BME280;5547;42.672;23.230;2022-09-19T13:37:57;93059.91;;;16.99;35.91
10988;BME280;5547;42.672;23.230;2022-09-19T13:43:03;93067.84;;;16.84;35.98
10988;BME280;5547;42.672;23.230;2022-09-19T13:45:40;93065.72;;;16.97;34.97
10988;BME280;5547;42.672;23.230;2022-09-19T13:51:05;93060.19;;;17.10;35.32
10988;BME280;5547;42.672;23.230;2022-09-19T13:53:35;93069.13;;;17.07;36.28
10988;BME280;5547;42.672;23.230;2022-09-19T13:56:03;93058.25;;;17.11;36.13
10988;BME280;5547;42.672;23.230;2022-09-19T13:58:30;93058.66;;;17.18;35.49
10988;BME280;5547;42.672;23.230;2022-09-19T14:03:50;93063.19;;;17.03;36.71
10988;BME280;5547;42.672;23.230;2022-09-19T14:11:36;93048.88;;;16.78;38.59
10988;BME280;5547;42.672;23.230;2022-09-19T14:14:50;93045.78;;;16.62;37.90
10988;BME280;5547;42.672;23.230;2022-09-19T14:17:09;93045.16;;;16.67;36.97
10988;BME280;5547;42.672;23.230;2022-09-19T14:19:43;93047.84;;;16.67;38.37
10988;BME280;5547;42.672;23.230;2022-09-19T14:24:54;93056.81;;;16.73;36.28
10988;BME280;5547;42.672;23.230;2022-09-19T14:32:34;93058.88;;;16.69;36.98
10988;BME280;5547;42.672;23.230;2022-09-19T14:37:58;93059.63;;;16.60;38.11
10988;BME280;5547;42.672;23.230;2022-09-19T14:53:31;93070.81;;;16.49;35.59
10988;BME280;5547;42.672;23.230;2022-09-19T14:56:00;93063.06;;;16.51;36.08
10988;BME280;5547;42.672;23.230;2022-09-19T14:58:26;93067.69;;;16.32;36.71
10988;BME280;5547;42.672;23.230;2022-09-19T15:00:53;93065.00;;;16.23;38.84
10988;BME280;5547;42.672;23.230;2022-09-19T15:03:20;93069.94;;;16.25;35.68
10988;BME280;5547;42.672;23.230;2022-09-19T15:05:50;93077.19;;;16.15;37.26
10988;BME280;5547;42.672;23.230;2022-09-19T15:08:33;93071.25;;;16.11;38.01
10988;BME280;5547;42.672;23.230;2022-09-19T15:10:59;93077.47;;;15.99;39.18
10988;BME280;5547;42.672;23.230;2022-09-19T15:13:25;93089.09;;;15.95;37.71
10988;BME280;5547;42.672;23.230;2022-09-19T15:15:51;93087.00;;;15.90;37.20
10988;BME280;5547;42.672;23.230;2022-09-19T15:18:21;93078.00;;;15.75;38.86
10988;BME280;5547;42.672;23.230;2022-09-19T15:20:49;93087.16;;;15.55;39.71
10988;BME280;5547;42.672;23.230;2022-09-19T15:23:16;93088.44;;;15.42;38.94
10988;BME280;5547;42.672;23.230;2022-09-19T15:25:42;93086.16;;;15.31;39.18
10988;BME280;5547;42.672;23.230;2022-09-19T15:28:27;93089.22;;;15.20;40.64
10988;BME280;5547;42.672;23.230;2022-09-19T15:30:54;93090.50;;;15.38;39.01
10988;BME280;5547;42.672;23.230;2022-09-19T15:33:21;93094.50;;;15.33;40.09
10988;BME280;5547;42.672;23.230;2022-09-19T15:35:48;93094.72;;;15.17;40.21
10988;BME280;5547;42.672;23.230;2022-09-19T15:38:19;93095.97;;;15.03;41.47
10988;BME280;5547;42.672;23.230;2022-09-19T15:40:47;93103.28;;;15.02;39.80
10988;BME280;5547;42.672;23.230;2022-09-19T15:43:13;93109.53;;;15.08;38.65
10988;BME280;5547;42.672;23.230;2022-09-19T15:45:45;93110.16;;;15.12;38.53
10988;BME280;5547;42.672;23.230;2022-09-19T15:50:37;93114.69;;;15.25;43.12
10988;BME280;5547;42.672;23.230;2022-09-19T15:53:03;93109.53;;;15.08;44.29
10988;BME280;5547;42.672;23.230;2022-09-19T15:55:29;93119.34;;;15.02;44.94
10988;BME280;5547;42.672;23.230;2022-09-19T15:57:56;93121.69;;;15.00;46.01
10988;BME280;5547;42.672;23.230;2022-09-19T16:00:23;93113.84;;;15.06;45.29
10988;BME280;5547;42.672;23.230;2022-09-19T16:02:56;93114.97;;;14.96;45.79
10988;BME280;5547;42.672;23.230;2022-09-19T16:05:24;93113.53;;;14.82;47.09
10988;BME280;5547;42.672;23.230;2022-09-19T16:07:54;93115.59;;;14.78;46.87
10988;BME280;5547;42.672;23.230;2022-09-19T16:10:40;93118.19;;;14.68;47.20
10988;BME280;5547;42.672;23.230;2022-09-19T16:15:52;93115.16;;;14.44;47.47
10988;BME280;5547;42.672;23.230;2022-09-19T16:18:18;93117.13;;;14.31;48.00
10988;BME280;5547;42.672;23.230;2022-09-19T16:20:48;93113.38;;;14.28;47.40
10988;BME280;5547;42.672;23.230;2022-09-19T16:23:17;93110.56;;;13.97;49.28
10988;BME280;5547;42.672;23.230;2022-09-19T16:25:57;93111.31;;;13.85;48.52
10988;BME280;5547;42.672;23.230;2022-09-19T16:31:08;93123.09;;;13.62;48.37
10988;BME280;5547;42.672;23.230;2022-09-19T16:33:41;93118.81;;;13.39;50.25
10988;BME280;5547;42.672;23.230;2022-09-19T16:36:11;93119.81;;;13.16;50.74